FWKI

Lilongwe International Airport

Lilongwe, Malawi
METAR FWKI 181400Z 12010KT CAVOK 24/02 Q1021 NOSIG
Observed Flight Rules
Aug-18 @ 14:00 UTC (52 minutes ago) Visual Flight Rules
Wind Visibility Clouds
120° at 10 knots 10,000+ meters
  • Clear skies
Temperatures Readings
Current 24°C / 75°F
Dewpoint 2°C / 36°F
Humidity 24%
Altimeter 30.15" Hg
Pressure 1021 hPa
Elevation 1229
METAR FWKI 181400Z 12010KT CAVOK 24/02 Q1021 NOSIG
Observed Flight Rules
Aug-18 @ 14:00 UTC
(52 minutes ago)
VFR
Wind Visibility
120° at 10 knots 10,000+ meters
Clouds
  • Clear skies
Temperature Dewpoint
24°C / 75°F 2°C / 36°F
Humidity Altimeter Pressure
24% 30.15" Hg 1021 hPa